Time;durP1;ratioP1;P1;durP2;ratioP2;P2;SDS_P1;SDS_P2;PMS_P1;PMS_P2;Temp;Humidity;BMP_temperature;BMP_pressure;BME280_temperature;BME280_humidity;BME280_pressure;Samples;Min_cycle;Max_cycle;Signal;HPM_P1;HPM_P2
2023/10/23 00:01:38;;;;;;;4.80;1.90;;;;;;;18.73;65.28;100085.75;5068041;28;20265;-59
2023/10/23 00:04:03;;;;;;;4.90;2.03;;;;;;;18.72;65.70;100087.78;5068724;28;20183;-60
2023/10/23 00:06:29;;;;;;;2.87;1.60;;;;;;;18.72;65.22;100089.84;5050651;28;20855;-60
2023/10/23 00:08:54;;;;;;;4.50;1.93;;;;;;;18.73;65.67;100091.47;5069134;28;20171;-60
2023/10/23 00:11:27;;;;;;;3.63;1.87;;;;;;;18.70;65.57;100093.06;5068398;28;20186;-60
2023/10/23 00:13:53;;;;;;;5.17;2.10;;;;;;;18.70;65.41;100093.06;5051487;28;20221;-60
2023/10/23 00:16:18;;;;;;;4.97;1.83;;;;;;;18.72;65.25;100095.56;5047658;28;20438;-60
2023/10/23 00:18:44;;;;;;;4.13;2.23;;;;;;;18.71;65.53;100096.78;5049270;28;20168;-60
2023/10/23 00:21:09;;;;;;;3.93;2.20;;;;;;;18.70;65.30;100095.09;5067027;28;20256;-60
2023/10/23 00:23:36;;;;;;;5.53;2.07;;;;;;;18.69;65.45;100105.72;5050760;28;20218;-60
2023/10/23 00:26:02;;;;;;;4.70;1.83;;;;;;;18.70;65.65;100097.97;5067311;28;20464;-60
2023/10/23 00:28:27;;;;;;;3.23;1.80;;;;;;;18.70;66.05;100098.78;5068031;28;20182;-60
2023/10/23 00:30:53;;;;;;;2.73;1.80;;;;;;;18.71;65.52;100105.34;5067015;28;20253;-60
2023/10/23 00:33:18;;;;;;;3.70;2.27;;;;;;;18.69;65.62;100091.44;5060549;28;20551;-60
2023/10/23 00:35:43;;;;;;;6.43;2.10;;;;;;;18.69;65.48;100085.72;5047232;28;20519;-60
2023/10/23 00:38:09;;;;;;;3.47;1.80;;;;;;;18.69;65.50;100082.84;5055179;28;20976;-60
2023/10/23 00:40:34;;;;;;;4.03;2.17;;;;;;;18.68;65.70;100092.66;5067944;28;20513;-60
2023/10/23 00:43:19;;;;;;;4.67;2.00;;;;;;;18.68;65.53;100088.97;5068419;28;20464;-60
2023/10/23 00:45:58;;;;;;;4.43;1.90;;;;;;;18.70;65.57;100093.06;5069047;28;20260;-60
2023/10/23 00:48:24;;;;;;;4.03;1.90;;;;;;;18.69;65.79;100094.28;5050964;28;20906;-60
2023/10/23 00:50:51;;;;;;;3.10;1.53;;;;;;;18.68;65.68;100088.97;5068699;28;20829;-60
2023/10/23 00:53:20;;;;;;;3.93;2.00;;;;;;;18.67;65.72;100088.13;5068103;28;20441;-60
2023/10/23 00:55:45;;;;;;;4.03;2.00;;;;;;;18.68;65.41;100092.66;5068339;28;20778;-60
2023/10/23 00:58:11;;;;;;;3.60;1.67;;;;;;;18.67;65.61;100085.25;5068220;28;20402;-60
2023/10/23 01:00:37;;;;;;;3.80;1.93;;;;;;;18.65;66.06;100084.84;5067886;28;20195;-60
2023/10/23 01:03:03;;;;;;;3.60;1.67;;;;;;;18.67;65.58;100082.41;5053541;28;20180;-60
2023/10/23 01:05:29;;;;;;;3.90;2.07;;;;;;;18.66;65.62;100083.63;5048732;28;20196;-60
2023/10/23 01:07:55;;;;;;;2.97;1.63;;;;;;;18.66;65.78;100094.25;5044726;28;20443;-60
2023/10/23 01:10:20;;;;;;;3.80;1.77;;;;;;;18.67;65.55;100085.25;5068724;28;20452;-60
2023/10/23 01:12:46;;;;;;;3.57;1.80;;;;;;;18.66;65.60;100089.34;5066539;28;20497;-60
2023/10/23 01:15:11;;;;;;;3.60;1.70;;;;;;;18.65;65.55;100087.69;5071956;28;20206;-60
2023/10/23 01:17:37;;;;;;;5.07;2.30;;;;;;;18.66;65.90;100099.97;5072321;28;20622;-61
2023/10/23 01:20:03;;;;;;;2.50;1.47;;;;;;;18.64;65.75;100091.78;5070558;28;20227;-60
2023/10/23 01:22:28;;;;;;;3.30;1.87;;;;;;;18.67;65.60;100093.03;5071197;28;20178;-60
2023/10/23 01:24:54;;;;;;;3.77;1.90;;;;;;;18.66;65.53;100095.06;5069654;28;20891;-60
2023/10/23 01:27:19;;;;;;;5.77;2.00;;;;;;;18.65;65.53;100096.28;5023027;28;20607;-59
2023/10/23 01:29:45;;;;;;;3.10;2.03;;;;;;;18.63;65.52;100090.13;5072426;28;20822;-59
2023/10/23 01:32:10;;;;;;;3.43;2.00;;;;;;;18.65;65.93;100102.00;5049657;28;20202;-60
2023/10/23 01:34:36;;;;;;;5.03;1.80;;;;;;;18.64;65.98;100094.63;5071871;28;20209;-60
2023/10/23 01:37:01;;;;;;;3.17;1.63;;;;;;;18.62;65.87;100085.59;5071928;28;20213;-60
2023/10/23 01:39:27;;;;;;;3.13;1.97;;;;;;;18.64;65.68;100085.22;5070605;28;20240;-60
2023/10/23 01:41:52;;;;;;;3.70;1.80;;;;;;;18.62;66.01;100085.59;5070818;28;20186;-60
2023/10/23 01:44:18;;;;;;;3.43;2.07;;;;;;;18.63;65.61;100084.41;5071172;28;20164;-60
2023/10/23 01:46:43;;;;;;;2.90;1.83;;;;;;;18.62;65.75;100077.03;5070009;28;20292;-60
2023/10/23 01:49:09;;;;;;;3.23;1.70;;;;;;;18.62;65.95;100077.03;5071105;28;20179;-59
2023/10/23 01:51:34;;;;;;;3.63;1.70;;;;;;;18.62;65.73;100079.88;5070067;28;20623;-60
2023/10/23 01:54:00;;;;;;;3.90;1.90;;;;;;;18.61;66.03;100078.22;5071726;28;20179;-60
2023/10/23 01:56:25;;;;;;;4.83;2.00;;;;;;;18.62;65.97;100071.28;5071598;28;20683;-60
2023/10/23 01:58:51;;;;;;;3.43;1.70;;;;;;;18.63;65.76;100072.13;5071026;28;20187;-60
2023/10/23 02:01:23;;;;;;;2.83;1.80;;;;;;;18.62;65.98;100065.59;5071682;28;20179;-60
2023/10/23 02:03:49;;;;;;;3.80;2.10;;;;;;;18.61;65.79;100072.50;5068858;28;20183;-60
2023/10/23 02:06:15;;;;;;;2.23;1.27;;;;;;;18.62;65.42;100070.50;5071657;28;20472;-60
2023/10/23 02:08:40;;;;;;;3.20;2.00;;;;;;;18.61;65.76;100069.66;5071164;28;20516;-60
2023/10/23 02:11:07;;;;;;;3.50;1.80;;;;;;;18.61;66.00;100072.50;5070214;28;20194;-60
2023/10/23 02:13:32;;;;;;;3.67;1.33;;;;;;;18.60;65.66;100072.91;5070871;28;20232;-60
2023/10/23 02:15:58;;;;;;;4.17;1.70;;;;;;;18.59;65.74;100074.94;5070079;28;21218;-60
2023/10/23 02:18:23;;;;;;;3.90;1.90;;;;;;;18.59;65.98;100074.94;5069304;28;20919;-60
2023/10/23 02:20:49;;;;;;;2.30;1.40;;;;;;;18.59;65.94;100074.13;5069321;28;20231;-60
2023/10/23 02:23:14;;;;;;;3.27;1.87;;;;;;;18.60;65.67;100076.59;5069857;28;20191;-60
2023/10/23 02:25:39;;;;;;;5.00;2.30;;;;;;;18.59;65.78;100069.22;5069422;28;20203;-60
2023/10/23 02:28:05;;;;;;;2.73;1.60;;;;;;;18.57;65.95;100070.81;5070183;28;20191;-60
2023/10/23 02:30:30;;;;;;;4.43;2.10;;;;;;;18.57;65.83;100065.91;5071028;28;20189;-60
2023/10/23 02:32:56;;;;;;;3.70;2.10;;;;;;;18.58;65.37;100070.44;5068333;28;20183;-60
2023/10/23 02:35:21;;;;;;;3.20;1.93;;;;;;;18.56;65.77;100067.13;5068867;28;20250;-60
2023/10/23 02:37:49;;;;;;;4.57;1.77;;;;;;;18.55;65.99;100065.50;5071115;28;20166;-60
2023/10/23 02:40:15;;;;;;;3.27;1.77;;;;;;;18.56;66.07;100072.03;5069822;28;20258;-60
2023/10/23 02:42:40;;;;;;;2.73;1.63;;;;;;;18.56;65.87;100067.13;5070100;28;20509;-60
2023/10/23 02:45:07;;;;;;;3.23;2.00;;;;;;;18.57;65.91;100067.97;5069002;28;20428;-59
2023/10/23 02:47:32;;;;;;;2.90;1.80;;;;;;;18.57;65.73;100065.13;5067920;28;20191;-60
2023/10/23 02:49:58;;;;;;;2.87;1.60;;;;;;;18.57;65.77;100074.50;5068141;28;21006;-60
2023/10/23 02:52:23;;;;;;;3.23;1.80;;;;;;;18.55;65.68;100074.06;5068885;28;20194;-60
2023/10/23 02:54:50;;;;;;;3.30;1.70;;;;;;;18.55;65.98;100076.94;5069644;28;20179;-60
2023/10/23 02:57:15;;;;;;;2.10;1.20;;;;;;;18.56;66.00;100072.84;5069005;28;20514;-60
2023/10/23 02:59:46;;;;;;;2.93;1.80;;;;;;;18.55;65.60;100065.50;5070056;28;20425;-60
2023/10/23 03:02:12;;;;;;;2.93;1.73;;;;;;;18.55;66.17;100064.66;5068761;28;20286;-60
2023/10/23 03:04:38;;;;;;;2.90;1.67;;;;;;;18.54;65.84;100052.41;5070557;28;21148;-60
2023/10/23 03:07:03;;;;;;;4.17;1.70;;;;;;;18.56;65.71;100054.91;5065581;28;20464;-60
2023/10/23 03:09:29;;;;;;;3.03;1.80;;;;;;;18.55;65.85;100056.06;5068800;28;20187;-60
2023/10/23 03:11:54;;;;;;;2.10;1.20;;;;;;;18.53;66.02;100047.91;5068990;28;20182;-60
2023/10/23 03:14:20;;;;;;;3.10;1.80;;;;;;;18.55;65.80;100056.91;5068972;28;20256;-60
2023/10/23 03:16:47;;;;;;;2.47;1.30;;;;;;;18.54;65.79;100049.56;5064813;28;20205;-60
2023/10/23 03:19:12;;;;;;;3.90;1.70;;;;;;;18.55;66.01;100050.38;5069236;28;20182;-60
2023/10/23 03:21:37;;;;;;;2.70;1.57;;;;;;;18.54;66.23;100045.88;5068659;28;20476;-60
2023/10/23 03:24:03;;;;;;;3.00;1.70;;;;;;;18.54;65.88;100057.28;5068849;28;20603;-60
2023/10/23 03:26:29;;;;;;;3.63;1.90;;;;;;;18.52;66.19;100048.28;5068265;28;20202;-60
2023/10/23 03:28:54;;;;;;;2.57;1.60;;;;;;;18.51;65.99;100050.31;5069766;28;20432;-60
2023/10/23 03:31:20;;;;;;;3.30;1.80;;;;;;;18.52;65.85;100049.09;5069718;28;20182;-60
2023/10/23 03:33:46;;;;;;;3.07;1.40;;;;;;;18.54;65.73;100040.97;5069431;28;20681;-60
2023/10/23 03:36:11;;;;;;;2.40;1.40;;;;;;;18.55;66.09;100042.63;5068901;28;20668;-60
2023/10/23 03:38:37;;;;;;;3.70;2.07;;;;;;;18.54;66.06;100048.72;5069228;28;20433;-60
2023/10/23 03:41:02;;;;;;;3.27;1.50;;;;;;;18.53;66.07;100045.06;5069944;28;20175;-60
2023/10/23 03:43:28;;;;;;;2.97;1.53;;;;;;;18.51;65.86;100047.47;5069753;28;20182;-60
2023/10/23 03:45:53;;;;;;;3.10;1.80;;;;;;;18.53;66.01;100039.34;5067542;28;20678;-60
2023/10/23 03:48:18;;;;;;;3.20;1.80;;;;;;;18.53;65.97;100039.34;5069595;28;20301;-60
2023/10/23 03:50:44;;;;;;;3.07;1.50;;;;;;;18.53;65.66;100039.34;5069473;28;20178;-60
2023/10/23 03:53:09;;;;;;;3.23;1.73;;;;;;;18.52;66.00;100039.72;5069426;28;20198;-60
2023/10/23 03:55:38;;;;;;;3.60;1.63;;;;;;;18.52;66.02;100043.38;5067327;28;20186;-60
2023/10/23 03:58:03;;;;;;;3.00;1.60;;;;;;;18.50;66.01;100042.97;5051349;28;20642;-60
2023/10/23 04:00:32;;;;;;;2.73;1.80;;;;;;;18.53;65.86;100045.06;5068759;28;20494;-60
2023/10/23 04:02:57;;;;;;;2.90;1.70;;;;;;;18.52;65.96;100034.81;5069335;28;20151;-60
2023/10/23 04:05:22;;;;;;;3.27;1.90;;;;;;;18.53;65.79;100029.94;5067983;28;20821;-60
2023/10/23 04:07:48;;;;;;;2.73;1.73;;;;;;;18.51;65.91;100029.50;5066799;28;20175;-60
2023/10/23 04:10:14;;;;;;;2.33;1.50;;;;;;;18.51;65.82;100021.72;5066212;28;20205;-60
2023/10/23 04:12:39;;;;;;;3.00;1.70;;;;;;;18.52;65.98;100022.56;5067157;28;20209;-60
2023/10/23 04:15:05;;;;;;;2.20;1.10;;;;;;;18.53;65.71;100035.66;5049166;28;20680;-60
2023/10/23 04:17:31;;;;;;;3.37;1.90;;;;;;;18.52;65.99;100023.38;5067292;28;20186;-60
2023/10/23 04:19:56;;;;;;;5.50;1.47;;;;;;;18.53;65.98;100019.31;5067163;28;20222;-60
2023/10/23 04:22:22;;;;;;;3.03;1.73;;;;;;;18.53;65.76;100025.03;5068944;28;20182;-60
2023/10/23 04:24:48;;;;;;;2.87;1.47;;;;;;;18.50;65.94;100014.38;5050689;28;20171;-60
2023/10/23 04:27:13;;;;;;;2.70;1.47;;;;;;;18.53;65.68;100012.78;5068864;28;20666;-60
2023/10/23 04:29:39;;;;;;;2.13;1.50;;;;;;;18.52;65.88;100006.22;5068912;28;20421;-60
2023/10/23 04:32:04;;;;;;;2.90;1.50;;;;;;;18.52;66.50;100011.94;5058001;28;20249;-60
2023/10/23 04:34:30;;;;;;;3.10;1.73;;;;;;;18.52;65.87;100014.78;5049332;28;20627;-60
2023/10/23 04:36:55;;;;;;;3.07;1.70;;;;;;;18.52;65.75;100014.78;5068196;28;20198;-60
2023/10/23 04:39:21;;;;;;;2.13;1.10;;;;;;;18.52;66.00;100009.06;5069013;28;20232;-60
2023/10/23 04:41:46;;;;;;;3.10;1.50;;;;;;;18.55;65.73;100004.63;5069173;28;20179;-60
2023/10/23 04:44:11;;;;;;;2.70;1.60;;;;;;;18.53;65.87;100009.91;5067929;28;20179;-60
2023/10/23 04:46:37;;;;;;;2.53;1.43;;;;;;;18.50;65.91;100002.94;5070289;28;20210;-60
2023/10/23 04:49:03;;;;;;;2.87;1.53;;;;;;;18.52;66.00;100000.50;5073113;28;20179;-60
2023/10/23 04:51:29;;;;;;;2.60;1.60;;;;;;;18.51;65.96;99995.19;5053999;28;20301;-62
2023/10/23 04:53:54;;;;;;;4.43;1.97;;;;;;;18.51;66.06;99993.16;5072418;28;20454;-61
2023/10/23 04:56:19;;;;;;;3.13;1.77;;;;;;;18.52;65.83;99988.25;5071604;28;20540;-61
2023/10/23 04:58:45;;;;;;;4.30;1.70;;;;;;;18.52;65.63;99991.13;5067851;28;20758;-61
2023/10/23 05:01:17;;;;;;;3.50;1.60;;;;;;;18.50;65.83;99988.66;5070916;28;20594;-60
2023/10/23 05:03:43;;;;;;;2.87;1.70;;;;;;;18.50;65.81;99974.34;5071049;28;20168;-61
2023/10/23 05:06:08;;;;;;;2.60;1.60;;;;;;;18.50;65.90;99974.34;5070516;28;21007;-61
2023/10/23 05:08:33;;;;;;;2.87;1.50;;;;;;;18.51;65.80;99978.03;5071172;28;20179;-62
2023/10/23 05:11:08;;;;;;;3.60;1.63;;;;;;;18.52;65.68;99983.34;5071746;28;20175;-61
2023/10/23 05:13:34;;;;;;;2.93;1.63;;;;;;;18.53;65.62;99996.47;5069964;28;20274;-61
2023/10/23 05:16:04;;;;;;;2.97;1.40;;;;;;;18.52;65.73;99996.84;5071512;28;21219;-61
2023/10/23 05:18:33;;;;;;;3.57;2.00;;;;;;;18.52;65.72;99991.94;5050163;28;20302;-61
2023/10/23 05:20:59;;;;;;;2.23;1.30;;;;;;;18.54;66.18;99997.25;5071070;28;20567;-62
2023/10/23 05:23:24;;;;;;;1.97;1.10;;;;;;;18.51;65.79;99993.16;5051171;28;20565;-61
2023/10/23 05:25:49;;;;;;;2.43;1.50;;;;;;;18.50;66.21;99985.78;5071575;28;20207;-61
2023/10/23 05:28:15;;;;;;;2.37;1.43;;;;;;;18.54;65.77;100000.97;5071660;28;20187;-62
2023/10/23 05:30:40;;;;;;;2.60;1.40;;;;;;;18.53;65.49;99995.63;5072260;28;20183;-62
2023/10/23 05:33:06;;;;;;;2.47;1.43;;;;;;;18.52;65.49;99993.97;5072102;28;20650;-61
2023/10/23 05:35:32;;;;;;;2.73;1.53;;;;;;;18.51;65.83;99987.44;5070941;28;20646;-62
2023/10/23 05:37:57;;;;;;;2.43;1.50;;;;;;;18.53;65.82;99989.91;5071261;28;20186;-61
2023/10/23 05:40:22;;;;;;;2.40;1.50;;;;;;;18.52;65.68;99983.34;5071171;28;20166;-62
2023/10/23 05:42:48;;;;;;;2.80;1.60;;;;;;;18.53;65.98;99978.47;5070477;28;20233;-61
2023/10/23 05:45:13;;;;;;;3.27;1.80;;;;;;;18.52;65.92;99985.41;5070502;28;20254;-61
2023/10/23 05:47:39;;;;;;;2.47;1.43;;;;;;;18.50;65.65;99974.34;5070993;28;20186;-62
2023/10/23 05:50:04;;;;;;;2.17;1.27;;;;;;;18.51;65.61;99972.34;5070450;28;20187;-61
2023/10/23 05:52:30;;;;;;;2.70;1.70;;;;;;;18.53;65.40;99972.75;5053622;28;20280;-62
2023/10/23 05:54:55;;;;;;;3.03;1.50;;;;;;;18.51;66.17;99969.47;5069217;28;20167;-61
2023/10/23 05:57:21;;;;;;;3.20;1.43;;;;;;;18.52;65.92;99983.34;5069597;28;20225;-62
2023/10/23 05:59:46;;;;;;;2.60;1.70;;;;;;;18.51;65.86;99976.00;5069715;28;20225;-61
2023/10/23 06:02:12;;;;;;;2.57;1.60;;;;;;;18.51;65.92;99978.03;5070058;28;20167;-61
2023/10/23 06:04:37;;;;;;;2.30;1.20;;;;;;;18.52;65.70;99979.69;5042663;28;20187;-62
2023/10/23 06:07:03;;;;;;;2.47;1.53;;;;;;;18.52;65.56;99977.63;5069545;28;20202;-61
2023/10/23 06:09:28;;;;;;;2.30;1.33;;;;;;;18.52;65.74;99969.06;5052013;28;20171;-62
2023/10/23 06:11:54;;;;;;;1.90;1.20;;;;;;;18.50;65.60;99973.50;5070833;28;20183;-62
2023/10/23 06:14:19;;;;;;;2.13;1.27;;;;;;;18.53;65.70;99975.63;5069606;28;20207;-61
2023/10/23 06:16:45;;;;;;;2.17;1.43;;;;;;;18.51;65.82;99975.19;5057027;28;20187;-61
2023/10/23 06:19:11;;;;;;;3.37;1.50;;;;;;;18.51;65.72;99986.63;5056959;28;20175;-62
2023/10/23 06:21:36;;;;;;;3.53;1.87;;;;;;;18.51;65.42;99980.91;5070982;28;20223;-61
2023/10/23 06:24:03;;;;;;;2.73;1.50;;;;;;;18.50;65.67;99965.78;5071070;28;20179;-61
2023/10/23 06:26:29;;;;;;;2.67;1.47;;;;;;;18.52;65.54;99973.97;5070195;28;20213;-62
2023/10/23 06:28:55;;;;;;;2.70;1.40;;;;;;;18.52;65.41;99963.34;5067866;28;20410;-61
2023/10/23 06:31:21;;;;;;;3.03;1.90;;;;;;;18.50;65.86;99962.91;5062202;28;20189;-61
2023/10/23 06:33:47;;;;;;;2.23;1.40;;;;;;;18.51;65.68;99961.69;5071156;28;20421;-61
2023/10/23 06:36:12;;;;;;;2.17;1.40;;;;;;;18.52;65.74;99960.47;5069705;28;20175;-61
2023/10/23 06:38:38;;;;;;;2.87;1.50;;;;;;;18.50;66.08;99964.94;5070638;28;20187;-61
2023/10/23 06:41:07;;;;;;;2.30;1.37;;;;;;;18.52;65.52;99971.91;5070619;28;20237;-62
2023/10/23 06:43:33;;;;;;;2.97;1.60;;;;;;;18.52;65.57;99971.13;5071136;28;20528;-62
2023/10/23 06:45:58;;;;;;;2.60;1.70;;;;;;;18.52;65.66;99971.91;5066708;28;20757;-62
2023/10/23 06:48:24;;;;;;;3.20;1.67;;;;;;;18.53;65.36;99969.91;5070668;28;20417;-61
2023/10/23 06:50:49;;;;;;;2.40;1.30;;;;;;;18.51;65.42;99970.28;5070279;28;20179;-62
2023/10/23 06:53:15;;;;;;;2.43;1.50;;;;;;;18.52;66.18;99966.19;5069899;28;20179;-61
2023/10/23 06:55:50;;;;;;;2.87;1.77;;;;;;;18.49;65.55;99978.44;5068420;28;20175;-62
2023/10/23 06:58:15;;;;;;;2.03;1.40;;;;;;;18.52;65.38;99974.78;5061330;28;20163;-62
2023/10/23 07:00:41;;;;;;;2.57;1.70;;;;;;;18.52;65.60;99979.69;5065653;28;20420;-62
2023/10/23 07:03:06;;;;;;;2.10;1.27;;;;;;;18.52;65.91;99969.06;5049924;28;20179;-62
2023/10/23 07:05:32;;;;;;;2.53;1.60;;;;;;;18.52;65.81;99965.41;5063495;28;20210;-62
2023/10/23 07:07:57;;;;;;;3.13;1.70;;;;;;;18.52;65.63;99965.41;5052541;28;20176;-61
2023/10/23 07:10:22;;;;;;;2.40;1.43;;;;;;;18.51;65.75;99955.97;5069542;28;20179;-61
2023/10/23 07:12:48;;;;;;;2.63;1.57;;;;;;;18.53;65.38;99962.16;5070324;28;20174;-62
2023/10/23 07:15:13;;;;;;;2.90;1.70;;;;;;;18.55;65.29;99974.00;5067828;28;20255;-61
2023/10/23 07:17:39;;;;;;;2.30;1.40;;;;;;;18.53;65.53;99976.44;5070464;28;20171;-61
2023/10/23 07:20:06;;;;;;;2.73;1.50;;;;;;;18.53;65.55;99976.44;5069937;28;20667;-61
2023/10/23 07:22:35;;;;;;;2.40;1.40;;;;;;;18.52;65.77;99965.41;5069210;28;20179;-62
2023/10/23 07:25:00;;;;;;;2.60;1.60;;;;;;;18.50;65.87;99951.47;5068972;28;20430;-62
2023/10/23 07:27:26;;;;;;;3.30;1.60;;;;;;;18.51;65.61;99953.13;5067890;28;20656;-62
2023/10/23 07:29:52;;;;;;;3.00;1.57;;;;;;;18.50;65.70;99945.75;5069000;28;20299;-61
2023/10/23 07:32:17;;;;;;;2.20;1.40;;;;;;;18.49;65.78;99952.69;5055395;28;20265;-62
2023/10/23 07:34:43;;;;;;;4.20;1.60;;;;;;;18.53;65.77;99956.44;5051699;28;20510;-62
2023/10/23 07:37:09;;;;;;;2.60;1.30;;;;;;;18.51;66.22;99940.88;5070048;28;20172;-61
2023/10/23 07:39:35;;;;;;;3.20;1.40;;;;;;;18.51;66.02;99935.16;5069795;28;20167;-61
2023/10/23 07:42:00;;;;;;;2.70;1.23;;;;;;;18.52;65.66;99919.66;5051218;28;20449;-62
2023/10/23 07:44:26;;;;;;;3.00;1.47;;;;;;;18.53;65.46;99924.16;5069242;28;20198;-62
2023/10/23 07:46:52;;;;;;;3.60;1.87;;;;;;;18.52;65.43;99928.22;5068750;28;20269;-62
2023/10/23 07:49:17;;;;;;;2.37;1.60;;;;;;;18.50;65.82;99925.75;5068670;28;20414;-61
2023/10/23 07:51:43;;;;;;;2.90;1.77;;;;;;;18.51;65.70;99915.97;5068535;28;20167;-62
2023/10/23 07:54:08;;;;;;;3.63;2.03;;;;;;;18.52;65.59;99920.47;5068567;28;20182;-62
2023/10/23 07:56:34;;;;;;;2.50;1.60;;;;;;;18.51;65.57;99924.53;5065121;28;20298;-61
2023/10/23 07:58:59;;;;;;;2.37;1.40;;;;;;;18.53;65.48;99927.84;5068498;28;20186;-61
2023/10/23 08:01:25;;;;;;;3.00;1.60;;;;;;;18.55;65.46;99938.88;5066902;28;20210;-61
2023/10/23 08:03:50;;;;;;;2.87;1.50;;;;;;;18.52;65.62;99937.59;5069378;28;20171;-62
2023/10/23 08:06:16;;;;;;;2.93;1.63;;;;;;;18.52;65.64;99940.47;5068520;28;20198;-61
2023/10/23 08:08:41;;;;;;;3.23;1.83;;;;;;;18.54;65.47;99938.06;5069466;28;20273;-62
2023/10/23 08:11:08;;;;;;;2.83;1.73;;;;;;;18.53;65.90;99949.88;5051477;28;20174;-62
2023/10/23 08:13:33;;;;;;;2.63;1.60;;;;;;;18.51;65.60;99950.25;5068779;28;20538;-62
2023/10/23 08:15:59;;;;;;;2.10;1.40;;;;;;;18.52;65.60;99937.59;5069592;28;20421;-61
2023/10/23 08:18:24;;;;;;;2.97;1.60;;;;;;;18.52;65.81;99937.59;5069425;28;20175;-62
2023/10/23 08:20:50;;;;;;;2.80;1.73;;;;;;;18.55;65.34;99941.72;5065420;28;20223;-62
2023/10/23 08:23:15;;;;;;;2.37;1.30;;;;;;;18.55;65.35;99942.56;5067666;28;20202;-62
2023/10/23 08:25:41;;;;;;;3.17;1.70;;;;;;;18.52;65.38;99934.75;5068990;28;20272;-62
2023/10/23 08:28:08;;;;;;;2.30;1.27;;;;;;;18.54;65.72;99931.50;5069186;28;20183;-62
2023/10/23 08:30:34;;;;;;;2.70;1.40;;;;;;;18.52;65.46;99931.09;5051310;28;20182;-61
2023/10/23 08:32:59;;;;;;;1.80;1.10;;;;;;;18.53;65.69;99930.72;5068715;28;20996;-62
2023/10/23 08:35:27;;;;;;;2.50;1.83;;;;;;;18.54;65.35;99926.63;5068873;28;20478;-62
2023/10/23 08:37:54;;;;;;;2.57;2.03;;;;;;;18.54;65.33;99929.50;5068214;28;20213;-61
2023/10/23 08:40:20;;;;;;;3.10;1.60;;;;;;;18.55;65.28;99925.41;5068697;28;20436;-61
2023/10/23 08:42:45;;;;;;;2.67;1.37;;;;;;;18.55;65.52;99939.69;5067590;28;20444;-62
2023/10/23 08:45:11;;;;;;;2.33;1.43;;;;;;;18.56;65.73;99941.34;5067858;28;20440;-61
2023/10/23 08:47:36;;;;;;;2.20;1.40;;;;;;;18.54;65.56;99935.19;5067751;28;20252;-61
2023/10/23 08:50:03;;;;;;;3.30;1.40;;;;;;;18.57;65.72;99945.84;5067793;28;20897;-61
2023/10/23 08:52:33;;;;;;;2.83;1.60;;;;;;;18.54;65.59;99952.34;5049120;28;20282;-61
2023/10/23 08:54:59;;;;;;;2.10;1.40;;;;;;;18.56;65.85;99949.13;5067817;28;21121;-61
2023/10/23 08:57:24;;;;;;;3.10;1.60;;;;;;;18.55;65.98;99944.59;5067732;28;20425;-61
2023/10/23 08:59:50;;;;;;;3.00;1.60;;;;;;;18.56;65.51;99961.34;5050254;28;20178;-61
2023/10/23 09:02:15;;;;;;;2.23;1.30;;;;;;;18.57;65.41;99956.47;5067777;28;20186;-62
2023/10/23 09:04:41;;;;;;;2.40;1.50;;;;;;;18.55;65.60;99962.56;5068496;28;20175;-62
2023/10/23 09:07:06;;;;;;;2.37;1.43;;;;;;;18.57;65.42;99965.84;5067787;28;20316;-62
2023/10/23 09:09:32;;;;;;;2.50;1.40;;;;;;;18.55;65.54;99973.16;5063914;28;20187;-61
2023/10/23 09:11:57;;;;;;;2.70;1.63;;;;;;;18.53;65.79;99967.88;5068641;28;20179;-62
2023/10/23 09:14:27;;;;;;;2.63;1.40;;;;;;;18.56;65.79;99969.13;5067669;28;20223;-61
2023/10/23 09:16:56;;;;;;;2.10;1.20;;;;;;;18.56;65.48;99955.63;5050195;28;20186;-62
2023/10/23 09:19:36;;;;;;;2.10;1.20;;;;;;;18.57;65.56;99945.84;5068420;28;20949;-62
2023/10/23 09:22:03;;;;;;;2.00;1.33;;;;;;;18.56;65.65;99943.41;5068587;28;20413;-61
2023/10/23 09:24:29;;;;;;;2.83;1.50;;;;;;;18.55;65.40;99942.56;5067555;28;20441;-62
2023/10/23 09:26:55;;;;;;;2.77;1.47;;;;;;;18.55;65.78;99948.28;5050044;28;20515;-62
2023/10/23 09:29:24;;;;;;;2.33;1.40;;;;;;;18.57;65.43;99942.19;5067454;28;20421;-61
2023/10/23 09:31:50;;;;;;;2.40;1.33;;;;;;;18.57;65.61;99951.56;5068301;28;21052;-62
2023/10/23 09:34:18;;;;;;;2.50;1.63;;;;;;;18.55;65.81;99956.03;5068304;28;20547;-61
2023/10/23 09:36:44;;;;;;;2.33;1.50;;;;;;;18.55;65.26;99951.13;5070538;28;20472;-62
2023/10/23 09:39:10;;;;;;;2.53;1.40;;;;;;;18.59;65.66;99954.88;5072002;28;20523;-62
2023/10/23 09:41:37;;;;;;;2.70;1.70;;;;;;;18.57;65.32;99959.34;5070819;28;20409;-61
2023/10/23 09:44:03;;;;;;;2.70;1.70;;;;;;;18.57;65.63;99940.13;5051430;28;20240;-62
2023/10/23 09:46:29;;;;;;;2.70;1.60;;;;;;;18.55;65.73;99939.69;5052932;28;20464;-62
2023/10/23 09:48:58;;;;;;;3.77;1.40;;;;;;;18.56;65.39;99949.13;5071067;28;20418;-62
2023/10/23 09:51:40;;;;;;;2.30;1.43;;;;;;;18.56;65.40;99938.47;5068955;28;20233;-62
2023/10/23 09:54:19;;;;;;;2.70;1.50;;;;;;;18.56;65.45;99938.47;5070444;28;20520;-61
2023/10/23 09:56:52;;;;;;;2.00;1.30;;;;;;;18.56;65.44;99937.69;5051968;28;20394;-62
2023/10/23 09:59:24;;;;;;;3.13;1.40;;;;;;;18.55;65.66;99939.69;5034592;28;20433;-61
2023/10/23 10:01:50;;;;;;;2.50;1.40;;;;;;;18.53;65.81;99939.28;5064170;28;20433;-62
2023/10/23 10:04:25;;;;;;;2.17;1.20;;;;;;;18.53;65.79;99938.44;5071733;28;20427;-62
2023/10/23 10:06:53;;;;;;;2.50;1.37;;;;;;;18.57;65.32;99930.75;5071519;28;20463;-62
2023/10/23 10:09:21;;;;;;;2.10;1.20;;;;;;;18.56;65.44;99924.19;5071329;28;20460;-62
2023/10/23 10:11:46;;;;;;;2.50;1.37;;;;;;;18.56;65.50;99907.03;5070310;28;20854;-62
2023/10/23 10:14:12;;;;;;;3.30;1.60;;;;;;;18.55;65.58;99901.72;5070537;28;20461;-62
2023/10/23 10:16:40;;;;;;;2.30;1.27;;;;;;;18.57;65.48;99908.69;5070401;28;20179;-62
2023/10/23 10:19:07;;;;;;;2.20;1.27;;;;;;;18.56;65.57;99892.75;5036869;28;20244;-62
2023/10/23 10:21:37;;;;;;;2.20;1.30;;;;;;;18.56;65.56;99886.22;5070865;28;20967;-62
2023/10/23 10:24:03;;;;;;;2.27;1.37;;;;;;;18.54;65.75;99883.75;5053331;28;20413;-61
2023/10/23 10:26:30;;;;;;;2.73;1.67;;;;;;;18.59;65.44;99874.81;5071123;28;20884;-61
2023/10/23 10:28:56;;;;;;;2.40;1.37;;;;;;;18.57;65.46;99874.38;5053541;28;20639;-62
2023/10/23 10:31:22;;;;;;;3.23;1.40;;;;;;;18.58;65.55;99870.31;5066994;28;20437;-61
2023/10/23 10:33:47;;;;;;;2.30;1.30;;;;;;;18.59;65.63;99851.13;5070585;28;20454;-61
2023/10/23 10:36:13;;;;;;;2.07;1.17;;;;;;;18.58;65.30;99844.59;5069206;28;20172;-61
2023/10/23 10:38:38;;;;;;;2.63;1.50;;;;;;;18.57;65.46;99836.41;5050225;28;20187;-61
2023/10/23 10:41:12;;;;;;;2.47;1.70;;;;;;;18.60;65.43;99819.28;5069030;28;20214;-62
2023/10/23 10:43:38;;;;;;;2.10;1.03;;;;;;;18.57;65.96;99808.63;5068002;28;20261;-62
2023/10/23 10:46:22;;;;;;;2.60;1.57;;;;;;;18.60;65.41;99804.16;5069089;28;20473;-61
2023/10/23 10:48:50;;;;;;;2.00;1.20;;;;;;;18.59;65.49;99791.91;5069095;28;20178;-62
2023/10/23 10:51:25;;;;;;;3.10;1.60;;;;;;;18.58;65.29;99787.41;5068528;28;20448;-61
2023/10/23 10:54:03;;;;;;;2.57;1.43;;;;;;;18.55;65.57;99796.75;5051295;28;20440;-61
2023/10/23 10:56:29;;;;;;;2.47;1.30;;;;;;;18.56;65.61;99791.88;5069885;28;20421;-62
2023/10/23 10:58:54;;;;;;;2.20;1.50;;;;;;;18.57;65.93;99785.75;5068635;28;20441;-62
2023/10/23 11:01:24;;;;;;;2.90;1.47;;;;;;;18.60;65.64;99781.28;5050724;28;20186;-62
2023/10/23 11:03:50;;;;;;;1.97;1.10;;;;;;;18.59;65.61;99769.03;5070533;28;20677;-61
2023/10/23 11:06:15;;;;;;;2.83;1.43;;;;;;;18.60;65.40;99781.28;5061342;28;20453;-61
2023/10/23 11:08:41;;;;;;;1.87;1.13;;;;;;;18.61;65.30;99786.59;5036190;28;20241;-61
2023/10/23 11:11:06;;;;;;;3.63;1.57;;;;;;;18.62;65.29;99811.13;5050373;28;20180;-61
2023/10/23 11:13:35;;;;;;;2.43;1.50;;;;;;;18.58;65.70;99816.00;5053352;28;20183;-62
2023/10/23 11:16:00;;;;;;;2.60;1.60;;;;;;;18.56;65.46;99821.28;5070172;28;20171;-62
2023/10/23 11:18:27;;;;;;;2.70;1.47;;;;;;;18.57;65.66;99825.78;5070327;28;20928;-62
2023/10/23 11:21:00;;;;;;;2.70;1.40;;;;;;;18.57;65.83;99820.06;5068646;28;20231;-61
2023/10/23 11:23:29;;;;;;;2.50;1.20;;;;;;;18.59;65.76;99816.81;5069986;28;20429;-61
2023/10/23 11:25:54;;;;;;;2.20;1.43;;;;;;;18.57;65.57;99825.78;5069907;28;20487;-61